createdAt,value
2023-05-03T00:01:39.384Z,16.77
2023-05-03T00:04:12.157Z,15.23
2023-05-03T00:06:45.274Z,22.37
2023-05-03T00:09:17.402Z,24.27
2023-05-03T00:11:50.364Z,24.25
2023-05-03T00:14:22.581Z,31.23
2023-05-03T00:16:54.754Z,41.80
2023-05-03T00:19:33.813Z,34.47
2023-05-03T00:22:07.263Z,24.33
2023-05-03T00:24:39.336Z,19.67
2023-05-03T00:27:11.362Z,15.82
2023-05-03T00:29:43.381Z,15.75
2023-05-03T00:32:16.091Z,16.50
2023-05-03T00:34:53.147Z,24.05
2023-05-03T00:37:25.973Z,18.77
2023-05-03T00:39:58.168Z,17.17
2023-05-03T00:42:30.285Z,15.02
2023-05-03T00:45:05.272Z,14.20
2023-05-03T00:47:37.872Z,17.35
2023-05-03T00:50:12.051Z,13.60
2023-05-03T00:52:44.786Z,12.85
2023-05-03T00:55:17.642Z,13.75
2023-05-03T00:57:49.738Z,12.55
2023-05-03T01:00:22.456Z,14.55
2023-05-03T01:02:55.010Z,24.65
2023-05-03T01:05:32.611Z,15.68
2023-05-03T01:08:15.340Z,15.35
2023-05-03T01:10:58.163Z,19.30
2023-05-03T01:13:44.202Z,18.23
2023-05-03T01:16:37.007Z,14.85
2023-05-03T01:19:47.936Z,12.83
2023-05-03T01:22:44.354Z,17.08
2023-05-03T01:25:16.666Z,13.27
2023-05-03T01:27:48.864Z,17.85
2023-05-03T01:30:24.289Z,15.25
2023-05-03T01:33:16.593Z,17.85
2023-05-03T01:36:05.813Z,14.57
2023-05-03T01:38:38.491Z,18.92
2023-05-03T01:41:12.652Z,13.07
2023-05-03T01:43:46.008Z,16.08
2023-05-03T01:46:19.426Z,19.20
2023-05-03T01:48:51.572Z,15.88
2023-05-03T01:51:23.747Z,16.42
2023-05-03T01:53:55.779Z,22.40
2023-05-03T01:56:28.202Z,21.33
2023-05-03T01:59:00.758Z,17.33
2023-05-03T02:01:33.599Z,14.40
2023-05-03T02:04:06.055Z,15.20
2023-05-03T02:06:38.534Z,18.77
2023-05-03T02:09:10.780Z,19.35
2023-05-03T02:11:44.068Z,17.40
2023-05-03T02:14:16.224Z,18.33
2023-05-03T02:16:48.787Z,15.38
2023-05-03T02:19:21.072Z,18.42
2023-05-03T02:21:53.211Z,16.25
2023-05-03T02:24:25.316Z,14.95
2023-05-03T02:26:58.033Z,14.43
2023-05-03T02:29:31.400Z,16.60
2023-05-03T02:32:05.969Z,14.82
2023-05-03T02:34:39.630Z,19.23
2023-05-03T02:37:13.931Z,17.25
2023-05-03T02:39:46.531Z,20.07
2023-05-03T02:42:20.867Z,14.70
2023-05-03T02:47:26.504Z,16.85
2023-05-03T02:49:58.812Z,14.82
2023-05-03T02:52:31.294Z,14.70
2023-05-03T02:55:05.794Z,16.38
2023-05-03T02:57:39.041Z,16.73
2023-05-03T03:00:15.485Z,15.38
2023-05-03T03:02:48.561Z,14.75
2023-05-03T03:05:21.312Z,14.20
2023-05-03T03:07:55.397Z,18.10
2023-05-03T03:10:29.068Z,16.17
2023-05-03T03:13:01.251Z,17.85
2023-05-03T03:15:39.878Z,16.05
2023-05-03T03:18:12.051Z,18.10
2023-05-03T03:20:44.193Z,21.65
2023-05-03T03:23:16.392Z,19.23
2023-05-03T03:25:48.500Z,19.20
2023-05-03T03:28:21.665Z,15.30
2023-05-03T03:30:54.204Z,22.40
2023-05-03T03:33:29.449Z,18.58
2023-05-03T03:36:10.328Z,17.92
2023-05-03T03:38:46.229Z,21.90
2023-05-03T03:41:19.729Z,19.23
2023-05-03T03:43:52.669Z,15.15
2023-05-03T03:46:25.996Z,17.63
2023-05-03T03:49:01.018Z,16.55
2023-05-03T03:51:35.480Z,22.98
2023-05-03T03:54:08.042Z,18.57
2023-05-03T03:56:43.504Z,17.13
2023-05-03T03:59:15.750Z,20.17
2023-05-03T04:04:21.753Z,19.08
2023-05-03T04:06:55.166Z,17.85
2023-05-03T04:09:30.518Z,17.08
2023-05-03T04:12:03.559Z,18.25
2023-05-03T04:14:36.559Z,16.42
2023-05-03T04:17:08.785Z,14.17
2023-05-03T04:19:41.621Z,17.23
2023-05-03T04:22:14.449Z,17.88
2023-05-03T04:24:46.536Z,20.23
2023-05-03T04:27:19.012Z,18.25
2023-05-03T04:29:51.214Z,17.10
2023-05-03T04:32:24.464Z,21.27
2023-05-03T04:35:00.575Z,16.15
2023-05-03T04:37:33.228Z,27.42
2023-05-03T04:40:09.579Z,26.08
2023-05-03T04:42:45.140Z,20.15
2023-05-03T04:45:18.915Z,20.55
2023-05-03T04:47:51.471Z,21.45
2023-05-03T04:50:24.137Z,17.73
2023-05-03T04:52:56.695Z,16.75
2023-05-03T04:55:30.914Z,16.05
2023-05-03T04:58:04.531Z,22.55
2023-05-03T05:00:36.636Z,19.80
2023-05-03T05:03:14.778Z,20.90
2023-05-03T05:05:47.340Z,17.88
2023-05-03T05:08:21.178Z,27.60
2023-05-03T05:10:58.557Z,21.80
2023-05-03T05:13:39.567Z,19.65
2023-05-03T05:16:11.641Z,19.73
2023-05-03T05:18:48.615Z,20.50
2023-05-03T05:21:31.680Z,22.52
2023-05-03T05:24:09.599Z,24.40
2023-05-03T05:26:46.576Z,22.92
2023-05-03T05:29:20.536Z,20.10
2023-05-03T05:31:53.319Z,19.83
2023-05-03T05:34:27.169Z,20.75
2023-05-03T05:37:00.546Z,21.10
2023-05-03T05:39:32.672Z,20.48
2023-05-03T05:42:05.222Z,23.88
2023-05-03T05:44:38.217Z,18.15
2023-05-03T05:47:11.292Z,25.97
2023-05-03T05:52:17.590Z,23.92
2023-05-03T05:54:49.788Z,25.10
2023-05-03T05:57:22.617Z,29.37
2023-05-03T05:59:54.845Z,35.95
2023-05-03T06:02:27.728Z,34.90
2023-05-03T06:05:01.945Z,35.65
2023-05-03T06:07:35.036Z,36.78
2023-05-03T06:10:08.100Z,54.07
2023-05-03T06:12:41.929Z,47.88
2023-05-03T06:15:19.768Z,46.83
2023-05-03T06:17:52.429Z,50.07
2023-05-03T06:20:24.708Z,48.58
2023-05-03T06:22:57.940Z,42.72
2023-05-03T06:25:30.314Z,44.83
2023-05-03T06:28:02.465Z,43.67
2023-05-03T06:30:37.591Z,58.63
2023-05-03T06:33:15.154Z,47.13
2023-05-03T06:35:49.015Z,51.47
2023-05-03T06:38:23.650Z,60.00
2023-05-03T06:40:55.823Z,48.90
2023-05-03T06:43:27.918Z,67.32
2023-05-03T06:46:07.848Z,88.50
2023-05-03T06:48:40.096Z,91.53
2023-05-03T06:51:12.500Z,97.07
2023-05-03T06:53:46.371Z,76.38
2023-05-03T06:56:18.371Z,70.57
2023-05-03T06:58:50.842Z,58.22
2023-05-03T07:01:23.490Z,74.72
2023-05-03T07:03:56.088Z,57.40
2023-05-03T07:06:28.284Z,60.83
2023-05-03T07:09:00.536Z,88.13
2023-05-03T07:11:34.721Z,56.38
2023-05-03T07:14:07.721Z,52.22
2023-05-03T07:16:39.871Z,47.42
2023-05-03T07:19:12.035Z,55.95
2023-05-03T07:21:44.176Z,51.70
2023-05-03T07:24:16.412Z,89.57
2023-05-03T07:26:49.266Z,46.25
2023-05-03T07:29:21.814Z,62.55
2023-05-03T07:31:54.047Z,75.90
2023-05-03T07:34:26.955Z,55.53
2023-05-03T07:36:59.061Z,66.23
2023-05-03T07:39:31.273Z,51.03
2023-05-03T07:42:03.609Z,51.90
2023-05-03T07:44:35.660Z,46.28
2023-05-03T07:47:08.179Z,38.00
2023-05-03T07:49:40.441Z,42.17
2023-05-03T07:52:12.500Z,31.98
2023-05-03T07:54:46.212Z,33.13
2023-05-03T07:57:18.457Z,32.72
2023-05-03T07:59:50.813Z,33.95
2023-05-03T08:02:23.025Z,31.85
2023-05-03T08:04:55.529Z,32.78
2023-05-03T08:07:28.918Z,35.38
2023-05-03T08:10:02.939Z,34.22
2023-05-03T08:12:36.475Z,31.42
2023-05-03T08:15:09.082Z,32.45
2023-05-03T08:17:45.147Z,31.25
2023-05-03T08:20:17.223Z,29.70
2023-05-03T08:22:49.937Z,32.28
2023-05-03T08:25:23.124Z,29.73
2023-05-03T08:27:55.802Z,30.55
2023-05-03T08:30:27.980Z,32.58
2023-05-03T08:33:00.158Z,32.65
2023-05-03T08:35:32.295Z,31.17
2023-05-03T08:38:05.355Z,32.75
2023-05-03T08:40:39.909Z,37.38
2023-05-03T08:43:15.199Z,36.75
2023-05-03T08:45:47.730Z,31.75
2023-05-03T08:48:19.924Z,31.70
2023-05-03T08:50:54.025Z,30.35
2023-05-03T08:53:26.692Z,33.85
2023-05-03T08:55:58.794Z,29.52
2023-05-03T08:58:35.424Z,30.98
2023-05-03T09:01:08.969Z,30.88
2023-05-03T09:03:49.764Z,29.80
2023-05-03T09:06:27.491Z,29.02
2023-05-03T09:09:00.282Z,29.15
2023-05-03T09:11:33.704Z,28.07
2023-05-03T09:14:21.511Z,29.27
2023-05-03T09:16:53.808Z,24.80
2023-05-03T09:19:26.433Z,26.90
2023-05-03T09:22:08.048Z,27.08
2023-05-03T09:24:40.189Z,28.63
2023-05-03T09:27:21.443Z,29.75
2023-05-03T09:29:54.749Z,29.13
2023-05-03T09:32:29.181Z,26.92
2023-05-03T09:35:10.639Z,26.80
2023-05-03T09:37:42.668Z,23.35
2023-05-03T09:40:18.559Z,25.77
2023-05-03T09:43:11.533Z,25.55
2023-05-03T09:45:43.786Z,25.25
2023-05-03T09:48:16.875Z,22.55
2023-05-03T09:50:49.391Z,21.80
2023-05-03T09:53:22.763Z,23.55
2023-05-03T09:55:56.274Z,21.85
2023-05-03T09:58:31.178Z,17.10
2023-05-03T10:01:03.373Z,17.17
2023-05-03T10:03:49.140Z,19.63
2023-05-03T10:06:49.159Z,18.38
2023-05-03T10:09:43.293Z,18.67
2023-05-03T10:14:54.326Z,21.58
2023-05-03T10:17:46.129Z,18.63
2023-05-03T10:20:33.698Z,19.63
2023-05-03T10:23:06.481Z,20.95
2023-05-03T10:25:41.186Z,17.40
2023-05-03T10:28:15.284Z,17.75
2023-05-03T10:30:47.615Z,20.10
2023-05-03T10:33:19.906Z,21.88
2023-05-03T10:35:53.913Z,20.15
2023-05-03T10:38:27.749Z,17.45
2023-05-03T10:41:01.834Z,20.83
2023-05-03T10:43:33.879Z,19.25
2023-05-03T10:46:08.932Z,22.42
2023-05-03T10:48:42.608Z,27.70
2023-05-03T10:51:33.283Z,22.40
2023-05-03T10:54:05.397Z,24.33
2023-05-03T10:56:55.222Z,26.77
2023-05-03T10:59:47.842Z,32.30
2023-05-03T11:02:27.563Z,33.85
2023-05-03T11:05:05.624Z,31.90
2023-05-03T11:07:38.087Z,30.17
2023-05-03T11:10:20.198Z,28.27
2023-05-03T11:12:52.536Z,27.98
2023-05-03T11:15:24.972Z,28.27
2023-05-03T11:17:57.423Z,27.75
2023-05-03T11:20:30.229Z,27.75
2023-05-03T11:23:02.978Z,27.23
2023-05-03T11:25:35.741Z,26.90
2023-05-03T11:28:07.832Z,27.63
2023-05-03T11:30:39.907Z,26.17
2023-05-03T11:33:12.227Z,23.65
2023-05-03T11:35:44.360Z,28.30
2023-05-03T11:38:16.811Z,27.02
2023-05-03T11:40:49.057Z,23.33
2023-05-03T11:43:21.293Z,25.48
2023-05-03T11:45:57.336Z,21.90
2023-05-03T11:48:32.541Z,20.70
2023-05-03T11:51:11.199Z,18.10
2023-05-03T11:53:44.116Z,21.48
2023-05-03T11:56:19.009Z,20.52
2023-05-03T11:58:57.628Z,17.48
2023-05-03T12:01:30.463Z,18.92
2023-05-03T12:04:05.669Z,17.08
2023-05-03T12:06:38.948Z,19.25
2023-05-03T12:09:15.878Z,16.83
2023-05-03T12:11:51.372Z,19.45
2023-05-03T12:14:24.954Z,18.83
2023-05-03T12:17:00.314Z,18.27
2023-05-03T12:19:34.412Z,15.32
2023-05-03T12:22:25.800Z,20.98
2023-05-03T12:24:59.683Z,20.33
2023-05-03T12:27:32.866Z,25.08
2023-05-03T12:30:08.421Z,21.70
2023-05-03T12:32:44.401Z,18.85
2023-05-03T12:35:19.791Z,14.07
2023-05-03T12:37:55.809Z,11.65
2023-05-03T12:40:34.336Z,16.77
2023-05-03T12:43:07.530Z,15.77
2023-05-03T12:45:40.745Z,15.83
2023-05-03T12:50:46.082Z,20.75
2023-05-03T12:53:18.681Z,19.70
2023-05-03T12:55:52.160Z,17.00
2023-05-03T12:58:49.866Z,19.65
2023-05-03T13:02:05.228Z,13.30
2023-05-03T13:06:48.092Z,14.45
2023-05-03T13:09:22.616Z,16.70
2023-05-03T13:12:02.582Z,14.48
2023-05-03T13:14:34.856Z,15.05
2023-05-03T13:17:07.678Z,13.20
2023-05-03T13:19:42.122Z,9.63
2023-05-03T13:22:15.156Z,10.05
2023-05-03T13:24:49.894Z,9.98
2023-05-03T13:27:22.012Z,10.52
2023-05-03T13:29:54.430Z,12.13
2023-05-03T13:32:27.494Z,10.20
2023-05-03T13:35:00.392Z,6.78
2023-05-03T13:37:32.796Z,8.20
2023-05-03T13:40:07.003Z,7.97
2023-05-03T13:42:39.690Z,8.23
2023-05-03T13:45:13.724Z,9.30
2023-05-03T13:50:25.529Z,13.07
2023-05-03T13:52:57.851Z,14.10
2023-05-03T13:55:30.164Z,10.27
2023-05-03T13:58:02.391Z,13.63
2023-05-03T14:00:36.390Z,8.93
2023-05-03T14:03:08.992Z,9.57
2023-05-03T14:05:41.601Z,9.30
2023-05-03T14:08:13.734Z,13.40
2023-05-03T14:10:46.389Z,10.60
2023-05-03T14:13:18.598Z,13.47
2023-05-03T14:15:51.206Z,9.30
2023-05-03T14:18:23.508Z,10.57
2023-05-03T14:20:57.234Z,9.90
2023-05-03T14:23:29.431Z,11.18
2023-05-03T14:26:02.747Z,11.27
2023-05-03T14:28:35.659Z,9.27
2023-05-03T14:31:08.029Z,12.75
2023-05-03T14:33:40.814Z,13.02
2023-05-03T14:36:13.591Z,11.52
2023-05-03T14:38:46.099Z,11.80
2023-05-03T14:41:18.166Z,13.55
2023-05-03T14:43:50.375Z,9.95
2023-05-03T14:46:22.463Z,17.13
2023-05-03T14:48:54.671Z,10.68
2023-05-03T14:51:28.030Z,12.60
2023-05-03T14:56:32.809Z,11.38
2023-05-03T14:59:05.080Z,11.07
2023-05-03T15:01:37.847Z,11.18
2023-05-03T15:04:11.007Z,11.48
2023-05-03T15:06:43.164Z,9.52
2023-05-03T15:09:15.396Z,11.18
2023-05-03T15:11:47.469Z,11.60
2023-05-03T15:14:19.752Z,12.50
2023-05-03T15:16:51.936Z,10.00
2023-05-03T15:19:24.340Z,10.65
2023-05-03T15:21:56.401Z,11.63
2023-05-03T15:24:28.804Z,10.48
2023-05-03T15:27:03.500Z,10.60
2023-05-03T15:29:35.943Z,8.88
2023-05-03T15:32:08.286Z,9.25
2023-05-03T15:34:40.490Z,9.98
2023-05-03T15:37:13.435Z,10.05
2023-05-03T15:39:45.545Z,9.98
2023-05-03T15:42:17.569Z,8.55
2023-05-03T15:44:49.946Z,11.02
2023-05-03T15:47:22.990Z,10.82
2023-05-03T15:49:57.606Z,9.27
2023-05-03T15:52:30.103Z,7.85
2023-05-03T15:55:02.316Z,9.32
2023-05-03T15:57:34.548Z,7.70
2023-05-03T16:00:11.987Z,8.60
2023-05-03T16:02:44.377Z,6.72
2023-05-03T16:05:17.852Z,9.68
2023-05-03T16:07:51.070Z,11.15
2023-05-03T16:10:25.077Z,7.97
2023-05-03T16:12:57.346Z,9.20
2023-05-03T16:15:29.824Z,8.82
2023-05-03T16:18:02.102Z,8.50
2023-05-03T16:20:34.437Z,7.75
2023-05-03T16:23:06.548Z,9.10
2023-05-03T16:25:38.634Z,8.90
2023-05-03T16:28:11.232Z,12.55
2023-05-03T16:30:45.072Z,9.13
2023-05-03T16:33:18.383Z,7.93
2023-05-03T16:35:50.460Z,7.80
2023-05-03T16:38:22.912Z,8.80
2023-05-03T16:40:55.021Z,7.60
2023-05-03T16:43:27.345Z,6.10
2023-05-03T16:46:00.856Z,8.15
2023-05-03T16:48:35.069Z,6.25
2023-05-03T16:51:07.584Z,7.30
2023-05-03T16:53:39.612Z,9.80
2023-05-03T16:56:11.822Z,7.65
2023-05-03T16:58:43.909Z,6.65
2023-05-03T17:01:16.520Z,8.02
2023-05-03T17:03:48.906Z,7.00
2023-05-03T17:06:21.140Z,6.60
2023-05-03T17:08:53.482Z,5.30
2023-05-03T17:11:26.213Z,5.72
2023-05-03T17:14:00.858Z,6.53
2023-05-03T17:16:33.386Z,6.13
2023-05-03T17:19:05.823Z,5.60
2023-05-03T17:21:37.957Z,6.28
2023-05-03T17:24:10.067Z,6.63
2023-05-03T17:26:42.396Z,5.93
2023-05-03T17:29:15.394Z,8.07
2023-05-03T17:31:47.655Z,7.25
2023-05-03T17:34:20.696Z,5.50
2023-05-03T17:36:56.268Z,6.57
2023-05-03T17:39:28.635Z,7.22
2023-05-03T17:42:01.789Z,6.35
2023-05-03T17:44:33.943Z,7.03
2023-05-03T17:47:06.101Z,6.07
2023-05-03T17:49:38.456Z,8.68
2023-05-03T17:52:13.628Z,5.97
2023-05-03T17:54:46.462Z,9.35
2023-05-03T17:57:20.804Z,6.68
2023-05-03T17:59:52.869Z,6.47
2023-05-03T18:02:25.230Z,8.45
2023-05-03T18:05:00.385Z,9.07
2023-05-03T18:07:32.541Z,10.23
2023-05-03T18:10:05.741Z,9.82
2023-05-03T18:12:38.093Z,11.13
2023-05-03T18:15:11.543Z,8.68
2023-05-03T18:17:43.762Z,10.70
2023-05-03T18:20:16.216Z,12.07
2023-05-03T18:22:48.856Z,11.07
2023-05-03T18:25:20.979Z,13.45
2023-05-03T18:27:53.358Z,12.25
2023-05-03T18:30:28.406Z,12.30
2023-05-03T18:33:00.602Z,14.65
2023-05-03T18:35:32.705Z,11.48
2023-05-03T18:38:04.961Z,9.68
2023-05-03T18:40:37.099Z,9.02
2023-05-03T18:43:09.222Z,11.98
2023-05-03T18:45:42.068Z,10.13
2023-05-03T18:48:14.233Z,10.30
2023-05-03T18:50:46.345Z,12.43
2023-05-03T18:53:18.523Z,11.15
2023-05-03T18:56:04.043Z,11.15
2023-05-03T18:59:09.853Z,14.90
2023-05-03T19:01:49.589Z,15.77
2023-05-03T19:08:20.846Z,17.38
2023-05-03T19:11:14.700Z,11.07
2023-05-03T19:14:25.162Z,14.13
2023-05-03T19:17:17.544Z,13.43
2023-05-03T19:19:56.499Z,13.82
2023-05-03T19:23:04.900Z,13.63
2023-05-03T19:26:01.097Z,13.98
2023-05-03T19:28:52.441Z,11.50
2023-05-03T19:31:24.797Z,12.55
2023-05-03T19:33:57.204Z,12.13
2023-05-03T19:36:32.438Z,12.63
2023-05-03T19:39:08.154Z,11.33
2023-05-03T19:41:40.654Z,12.48
2023-05-03T19:44:13.647Z,11.00
2023-05-03T19:46:48.446Z,11.57
2023-05-03T19:49:40.536Z,12.10
2023-05-03T19:52:12.703Z,15.80
2023-05-03T19:55:06.503Z,17.77
2023-05-03T19:57:47.792Z,13.07
2023-05-03T20:00:23.865Z,16.75
2023-05-03T20:03:31.022Z,13.43
2023-05-03T20:06:17.086Z,15.00
2023-05-03T20:09:21.126Z,16.92
2023-05-03T20:12:22.041Z,14.02
2023-05-03T20:16:06.026Z,14.48
2023-05-03T20:19:17.596Z,15.48
2023-05-03T20:31:16.931Z,17.35
2023-05-03T20:34:05.648Z,13.35
2023-05-03T20:36:58.648Z,13.30
2023-05-03T20:39:51.175Z,18.75
2023-05-03T20:42:42.502Z,16.15
2023-05-03T20:45:39.611Z,15.60
2023-05-03T20:48:37.542Z,15.90
2023-05-03T20:51:44.482Z,14.40
2023-05-03T20:54:52.245Z,16.92
2023-05-03T20:57:35.162Z,18.13
2023-05-03T21:00:21.456Z,16.13
2023-05-03T21:03:09.912Z,21.88
2023-05-03T21:05:53.086Z,17.67
2023-05-03T21:08:40.971Z,14.68
2023-05-03T21:11:57.521Z,19.95
2023-05-03T21:14:32.227Z,17.35
2023-05-03T21:17:11.653Z,14.43
2023-05-03T21:19:55.320Z,16.45
2023-05-03T21:22:42.492Z,15.87
2023-05-03T21:25:17.474Z,18.67
2023-05-03T21:28:07.664Z,20.48
2023-05-03T21:30:46.394Z,17.60
2023-05-03T21:33:18.691Z,20.15
2023-05-03T21:35:54.473Z,19.42
2023-05-03T21:38:42.815Z,20.70
2023-05-03T21:41:30.068Z,19.88
2023-05-03T21:44:14.544Z,17.80
2023-05-03T21:47:28.407Z,16.95
2023-05-03T21:50:00.698Z,21.75
2023-05-03T21:52:49.286Z,23.30
2023-05-03T21:55:29.580Z,20.20
2023-05-03T21:58:01.968Z,21.63
2023-05-03T22:00:51.011Z,20.98
2023-05-03T22:03:42.268Z,22.75
2023-05-03T22:06:14.775Z,23.98
2023-05-03T22:08:59.114Z,22.58
2023-05-03T22:11:44.539Z,20.85
2023-05-03T22:15:16.210Z,23.05
2023-05-03T22:18:11.547Z,26.55
2023-05-03T22:21:11.052Z,22.65
2023-05-03T22:26:42.648Z,19.98
2023-05-03T22:29:26.533Z,24.55
2023-05-03T22:32:08.070Z,27.17
2023-05-03T22:34:58.579Z,25.48
2023-05-03T22:37:30.757Z,22.73
2023-05-03T22:40:10.537Z,24.25
2023-05-03T22:42:47.813Z,24.73
2023-05-03T22:45:34.236Z,22.20
2023-05-03T22:48:18.378Z,30.30
2023-05-03T22:50:50.530Z,26.70
2023-05-03T22:53:22.735Z,28.70
2023-05-03T22:56:04.316Z,26.45
2023-05-03T22:58:36.507Z,27.92
2023-05-03T23:01:13.872Z,27.30
2023-05-03T23:03:46.634Z,28.10
2023-05-03T23:06:19.493Z,25.55
2023-05-03T23:08:52.129Z,29.20
2023-05-03T23:11:26.065Z,23.13
2023-05-03T23:13:58.159Z,26.88
2023-05-03T23:16:30.270Z,26.08
2023-05-03T23:19:02.360Z,24.02
2023-05-03T23:21:34.447Z,28.48
2023-05-03T23:24:07.354Z,25.80
2023-05-03T23:26:39.698Z,25.02
2023-05-03T23:29:12.268Z,24.17
2023-05-03T23:31:44.869Z,24.00
2023-05-03T23:34:18.729Z,25.83
2023-05-03T23:36:51.295Z,25.27
2023-05-03T23:39:23.302Z,22.98
2023-05-03T23:41:55.457Z,27.30
2023-05-03T23:44:38.490Z,29.98
2023-05-03T23:47:14.496Z,27.55
2023-05-03T23:49:46.799Z,25.52
2023-05-03T23:52:20.536Z,26.48
2023-05-03T23:55:00.888Z,26.73
2023-05-03T23:57:32.986Z,26.17
